sensor_id;sensor_type;location;lat;lon;timestamp;pressure;altitude;pressure_sealevel;temperature;humidity
6395;BME280;3230;42.588;23.358;2023-02-11T00:01:36;92424.00;;;-8.73;95.19
6395;BME280;3230;42.588;23.358;2023-02-11T00:04:02;92419.41;;;-8.79;95.15
6395;BME280;3230;42.588;23.358;2023-02-11T00:06:29;92421.59;;;-8.75;95.02
6395;BME280;3230;42.588;23.358;2023-02-11T00:08:56;92424.56;;;-8.70;94.92
6395;BME280;3230;42.588;23.358;2023-02-11T00:11:23;92426.19;;;-8.69;95.01
6395;BME280;3230;42.588;23.358;2023-02-11T00:13:50;92418.69;;;-8.70;95.42
6395;BME280;3230;42.588;23.358;2023-02-11T00:16:18;92418.69;;;-8.70;95.25
6395;BME280;3230;42.588;23.358;2023-02-11T00:18:44;92424.88;;;-8.63;95.74
6395;BME280;3230;42.588;23.358;2023-02-11T00:21:16;92425.03;;;-8.64;95.11
6395;BME280;3230;42.588;23.358;2023-02-11T00:23:42;92417.19;;;-8.73;94.80
6395;BME280;3230;42.588;23.358;2023-02-11T00:26:16;92418.25;;;-8.75;95.12
6395;BME280;3230;42.588;23.358;2023-02-11T00:28:43;92414.66;;;-8.73;94.63
6395;BME280;3230;42.588;23.358;2023-02-11T00:31:09;92413.47;;;-8.90;94.62
6395;BME280;3230;42.588;23.358;2023-02-11T00:33:34;92413.63;;;-9.03;95.03
6395;BME280;3230;42.588;23.358;2023-02-11T00:36:04;92411.84;;;-9.12;95.39
6395;BME280;3230;42.588;23.358;2023-02-11T00:38:30;92420.59;;;-9.05;95.18
6395;BME280;3230;42.588;23.358;2023-02-11T00:40:55;92416.81;;;-9.10;95.49
6395;BME280;3230;42.588;23.358;2023-02-11T00:43:21;92419.00;;;-9.17;95.66
6395;BME280;3230;42.588;23.358;2023-02-11T00:45:46;92419.13;;;-9.19;95.67
6395;BME280;3230;42.588;23.358;2023-02-11T00:48:12;92416.94;;;-9.12;95.70
6395;BME280;3230;42.588;23.358;2023-02-11T00:50:37;92419.00;;;-9.17;95.68
6395;BME280;3230;42.588;23.358;2023-02-11T00:53:02;92404.38;;;-9.25;96.15
6395;BME280;3230;42.588;23.358;2023-02-11T00:55:28;92409.34;;;-9.23;95.85
6395;BME280;3230;42.588;23.358;2023-02-11T00:57:53;92402.19;;;-9.18;96.26
6395;BME280;3230;42.588;23.358;2023-02-11T01:00:18;92406.03;;;-9.03;95.96
6395;BME280;3230;42.588;23.358;2023-02-11T01:02:44;92400.28;;;-9.05;95.90
6395;BME280;3230;42.588;23.358;2023-02-11T01:05:09;92400.28;;;-9.05;96.09
6395;BME280;3230;42.588;23.358;2023-02-11T01:07:35;92406.72;;;-9.01;95.51
6395;BME280;3230;42.588;23.358;2023-02-11T01:10:00;92406.88;;;-9.13;95.61
6395;BME280;3230;42.588;23.358;2023-02-11T01:12:26;92398.59;;;-9.16;95.44
6395;BME280;3230;42.588;23.358;2023-02-11T01:14:51;92396.16;;;-9.17;95.22
6395;BME280;3230;42.588;23.358;2023-02-11T01:17:17;92394.94;;;-9.34;95.10
6395;BME280;3230;42.588;23.358;2023-02-11T01:19:42;92394.84;;;-9.33;95.40
6395;BME280;3230;42.588;23.358;2023-02-11T01:22:07;92388.03;;;-9.32;95.03
6395;BME280;3230;42.588;23.358;2023-02-11T01:24:33;92385.19;;;-9.50;95.28
6395;BME280;3230;42.588;23.358;2023-02-11T01:26:58;92387.63;;;-9.49;95.84
6395;BME280;3230;42.588;23.358;2023-02-11T01:29:24;92384.22;;;-9.38;95.46
6395;BME280;3230;42.588;23.358;2023-02-11T01:31:49;92379.16;;;-9.38;95.44
6395;BME280;3230;42.588;23.358;2023-02-11T01:34:15;92387.03;;;-9.41;95.40
6395;BME280;3230;42.588;23.358;2023-02-11T01:36:40;92386.59;;;-9.46;95.57
6395;BME280;3230;42.588;23.358;2023-02-11T01:39:06;92385.44;;;-9.53;95.73
6395;BME280;3230;42.588;23.358;2023-02-11T01:41:33;92382.22;;;-9.55;96.25
6395;BME280;3230;42.588;23.358;2023-02-11T01:44:35;92380.72;;;-9.58;96.42
6395;BME280;3230;42.588;23.358;2023-02-11T01:47:01;92378.97;;;-9.57;96.29
6395;BME280;3230;42.588;23.358;2023-02-11T01:49:35;92371.41;;;-9.69;96.61
6395;BME280;3230;42.588;23.358;2023-02-11T01:52:09;92372.28;;;-9.58;96.59
6395;BME280;3230;42.588;23.358;2023-02-11T01:54:44;92367.13;;;-9.57;96.58
6395;BME280;3230;42.588;23.358;2023-02-11T01:57:31;92367.59;;;-9.63;96.82
6395;BME280;3230;42.588;23.358;2023-02-11T02:00:12;92367.59;;;-9.63;96.73
6395;BME280;3230;42.588;23.358;2023-02-11T02:05:09;92369.22;;;-9.73;97.18
6395;BME280;3230;42.588;23.358;2023-02-11T02:07:49;92363.03;;;-9.81;97.78
6395;BME280;3230;42.588;23.358;2023-02-11T02:10:20;92366.69;;;-9.73;97.75
6395;BME280;3230;42.588;23.358;2023-02-11T02:12:47;92361.31;;;-9.80;97.70
6395;BME280;3230;42.588;23.358;2023-02-11T02:17:57;92355.75;;;-9.85;98.03
6395;BME280;3230;42.588;23.358;2023-02-11T02:20:47;92355.19;;;-9.77;97.68
6395;BME280;3230;42.588;23.358;2023-02-11T02:29:05;92370.63;;;-9.69;98.28
6395;BME280;3230;42.588;23.358;2023-02-11T02:32:07;92358.28;;;-9.74;98.84
6395;BME280;3230;42.588;23.358;2023-02-11T02:40:52;92358.19;;;-9.84;98.35
6395;BME280;3230;42.588;23.358;2023-02-11T02:43:20;92357.06;;;-9.91;98.01
6395;BME280;3230;42.588;23.358;2023-02-11T02:45:46;92346.09;;;-9.91;97.87
6395;BME280;3230;42.588;23.358;2023-02-11T02:48:41;92352.47;;;-9.97;98.07
6395;BME280;3230;42.588;23.358;2023-02-11T03:02:29;92357.69;;;-10.21;98.49
6395;BME280;3230;42.588;23.358;2023-02-11T03:07:50;92351.91;;;-10.23;98.86
6395;BME280;3230;42.588;23.358;2023-02-11T03:10:26;92363.22;;;-10.27;98.72
6395;BME280;3230;42.588;23.358;2023-02-11T03:12:53;92370.56;;;-10.24;99.03
6395;BME280;3230;42.588;23.358;2023-02-11T03:15:22;92361.25;;;-10.35;99.04
6395;BME280;3230;42.588;23.358;2023-02-11T03:17:50;92360.69;;;-10.27;99.15
6395;BME280;3230;42.588;23.358;2023-02-11T03:20:19;92371.28;;;-10.34;98.91
6395;BME280;3230;42.588;23.358;2023-02-11T03:23:10;92358.50;;;-10.32;99.42
6395;BME280;3230;42.588;23.358;2023-02-11T03:25:46;92366.31;;;-10.35;99.59
6395;BME280;3230;42.588;23.358;2023-02-11T03:30:47;92359.28;;;-10.32;99.35
6395;BME280;3230;42.588;23.358;2023-02-11T03:33:21;92353.34;;;-10.42;99.90
6395;BME280;3230;42.588;23.358;2023-02-11T03:36:10;92351.63;;;-10.53;100.00
6395;BME280;3230;42.588;23.358;2023-02-11T03:38:47;92362.09;;;-10.69;100.00
6395;BME280;3230;42.588;23.358;2023-02-11T03:41:17;92357.13;;;-10.82;100.00
6395;BME280;3230;42.588;23.358;2023-02-11T03:43:51;92348.84;;;-10.72;100.00
6395;BME280;3230;42.588;23.358;2023-02-11T03:46:21;92352.66;;;-10.55;100.00
6395;BME280;3230;42.588;23.358;2023-02-11T03:48:51;92350.13;;;-10.55;100.00
6395;BME280;3230;42.588;23.358;2023-02-11T03:51:19;92367.84;;;-10.44;100.00
6395;BME280;3230;42.588;23.358;2023-02-11T03:53:46;92362.31;;;-10.49;100.00
6395;BME280;3230;42.588;23.358;2023-02-11T03:56:17;92357.72;;;-10.55;100.00
6395;BME280;3230;42.588;23.358;2023-02-11T03:58:44;92355.19;;;-10.55;100.00
6395;BME280;3230;42.588;23.358;2023-02-11T04:01:10;92353.00;;;-10.49;100.00
6395;BME280;3230;42.588;23.358;2023-02-11T04:03:35;92353.31;;;-10.53;100.00
6395;BME280;3230;42.588;23.358;2023-02-11T04:06:01;92344.94;;;-10.54;100.00
6395;BME280;3230;42.588;23.358;2023-02-11T04:08:26;92345.72;;;-10.53;100.00
6395;BME280;3230;42.588;23.358;2023-02-11T04:10:52;92351.84;;;-10.56;100.00
6395;BME280;3230;42.588;23.358;2023-02-11T04:13:17;92351.16;;;-10.58;100.00
6395;BME280;3230;42.588;23.358;2023-02-11T04:15:42;92345.06;;;-10.55;100.00
6395;BME280;3230;42.588;23.358;2023-02-11T04:18:08;92355.88;;;-10.53;100.00
6395;BME280;3230;42.588;23.358;2023-02-11T04:20:33;92351.50;;;-10.51;100.00
6395;BME280;3230;42.588;23.358;2023-02-11T04:22:58;92344.81;;;-10.41;100.00
6395;BME280;3230;42.588;23.358;2023-02-11T04:25:24;92353.56;;;-10.45;100.00
6395;BME280;3230;42.588;23.358;2023-02-11T04:27:50;92350.13;;;-10.44;100.00
6395;BME280;3230;42.588;23.358;2023-02-11T04:30:16;92349.78;;;-10.51;100.00
6395;BME280;3230;42.588;23.358;2023-02-11T04:32:41;92349.88;;;-10.52;100.00
6395;BME280;3230;42.588;23.358;2023-02-11T04:35:07;92336.63;;;-10.56;100.00
6395;BME280;3230;42.588;23.358;2023-02-11T04:37:32;92345.72;;;-10.53;100.00
6395;BME280;3230;42.588;23.358;2023-02-11T04:39:57;92342.06;;;-10.49;100.00
6395;BME280;3230;42.588;23.358;2023-02-11T04:42:23;92342.38;;;-10.42;100.00
6395;BME280;3230;42.588;23.358;2023-02-11T04:44:48;92336.97;;;-10.38;100.00
6395;BME280;3230;42.588;23.358;2023-02-11T04:47:14;92341.16;;;-10.48;100.00
6395;BME280;3230;42.588;23.358;2023-02-11T04:49:40;92341.81;;;-10.57;100.00
6395;BME280;3230;42.588;23.358;2023-02-11T04:52:05;92339.53;;;-10.61;100.00
6395;BME280;3230;42.588;23.358;2023-02-11T04:54:31;92344.81;;;-10.64;100.00
6395;BME280;3230;42.588;23.358;2023-02-11T04:56:56;92349.09;;;-10.64;100.00
6395;BME280;3230;42.588;23.358;2023-02-11T04:59:22;92344.59;;;-10.61;100.00
6395;BME280;3230;42.588;23.358;2023-02-11T05:01:47;92337.34;;;-10.65;100.00
6395;BME280;3230;42.588;23.358;2023-02-11T05:04:13;92344.38;;;-10.69;99.82
6395;BME280;3230;42.588;23.358;2023-02-11T05:06:39;92334.91;;;-10.67;100.00
6395;BME280;3230;42.588;23.358;2023-02-11T05:09:04;92333.66;;;-10.72;100.00
6395;BME280;3230;42.588;23.358;2023-02-11T05:11:30;92333.06;;;-10.76;100.00
6395;BME280;3230;42.588;23.358;2023-02-11T05:13:55;92327.88;;;-10.74;100.00
6395;BME280;3230;42.588;23.358;2023-02-11T05:16:21;92317.63;;;-10.84;100.00
6395;BME280;3230;42.588;23.358;2023-02-11T05:18:47;92325.13;;;-10.94;100.00
6395;BME280;3230;42.588;23.358;2023-02-11T05:21:17;92330.50;;;-10.87;100.00
6395;BME280;3230;42.588;23.358;2023-02-11T05:23:43;92319.13;;;-10.93;100.00
6395;BME280;3230;42.588;23.358;2023-02-11T05:26:10;92319.00;;;-10.91;100.00
6395;BME280;3230;42.588;23.358;2023-02-11T05:28:35;92322.47;;;-10.93;100.00
6395;BME280;3230;42.588;23.358;2023-02-11T05:31:01;92316.03;;;-10.85;100.00
6395;BME280;3230;42.588;23.358;2023-02-11T05:33:27;92325.94;;;-10.82;100.00
6395;BME280;3230;42.588;23.358;2023-02-11T05:36:00;92322.59;;;-10.60;100.00
6395;BME280;3230;42.588;23.358;2023-02-11T05:38:26;92332.22;;;-10.20;100.00
6395;BME280;3230;42.588;23.358;2023-02-11T05:40:52;92333.56;;;-9.60;100.00
6395;BME280;3230;42.588;23.358;2023-02-11T05:43:18;92329.78;;;-8.91;100.00
6395;BME280;3230;42.588;23.358;2023-02-11T05:45:43;92322.13;;;-8.29;100.00
6395;BME280;3230;42.588;23.358;2023-02-11T05:48:08;92329.59;;;-7.77;96.63
6395;BME280;3230;42.588;23.358;2023-02-11T05:50:34;92337.56;;;-7.12;94.79
6395;BME280;3230;42.588;23.358;2023-02-11T05:52:59;92333.13;;;-6.43;92.02
6395;BME280;3230;42.588;23.358;2023-02-11T05:55:25;92345.66;;;-5.66;89.54
6395;BME280;3230;42.588;23.358;2023-02-11T05:57:50;92345.19;;;-4.71;86.33
6395;BME280;3230;42.588;23.358;2023-02-11T06:00:16;92338.72;;;-4.04;83.90
6395;BME280;3230;42.588;23.358;2023-02-11T06:02:41;92353.03;;;-3.34;81.25
6395;BME280;3230;42.588;23.358;2023-02-11T06:05:07;92354.53;;;-2.24;75.22
6395;BME280;3230;42.588;23.358;2023-02-11T06:07:32;92359.81;;;-1.06;68.22
6395;BME280;3230;42.588;23.358;2023-02-11T06:09:58;92360.94;;;-0.54;63.98
6395;BME280;3230;42.588;23.358;2023-02-11T06:12:24;92362.38;;;0.17;61.41
6395;BME280;3230;42.588;23.358;2023-02-11T06:14:49;92365.47;;;0.12;59.62
6395;BME280;3230;42.588;23.358;2023-02-11T06:17:14;92367.81;;;0.37;55.09
6395;BME280;3230;42.588;23.358;2023-02-11T06:19:40;92366.19;;;-0.09;54.45
6395;BME280;3230;42.588;23.358;2023-02-11T06:22:05;92369.69;;;-0.63;54.10
6395;BME280;3230;42.588;23.358;2023-02-11T06:24:30;92362.94;;;-1.90;57.30
6395;BME280;3230;42.588;23.358;2023-02-11T06:26:56;92357.91;;;-2.48;62.58
6395;BME280;3230;42.588;23.358;2023-02-11T06:29:21;92364.72;;;-3.40;63.42
6395;BME280;3230;42.588;23.358;2023-02-11T06:31:47;92359.09;;;-3.86;67.19
6395;BME280;3230;42.588;23.358;2023-02-11T06:34:12;92353.47;;;-4.24;69.26
6395;BME280;3230;42.588;23.358;2023-02-11T06:36:38;92355.84;;;-4.31;71.01
6395;BME280;3230;42.588;23.358;2023-02-11T06:39:05;92360.16;;;-4.58;70.26
6395;BME280;3230;42.588;23.358;2023-02-11T06:41:31;92358.69;;;-4.08;69.64
6395;BME280;3230;42.588;23.358;2023-02-11T06:43:56;92349.25;;;-4.07;69.93
6395;BME280;3230;42.588;23.358;2023-02-11T06:46:22;92351.97;;;-4.09;69.77
6395;BME280;3230;42.588;23.358;2023-02-11T06:48:47;92347.47;;;-4.41;69.98
6395;BME280;3230;42.588;23.358;2023-02-11T06:51:13;92363.38;;;-4.29;71.30
6395;BME280;3230;42.588;23.358;2023-02-11T06:53:42;92363.00;;;-4.08;70.56
6395;BME280;3230;42.588;23.358;2023-02-11T06:56:10;92360.69;;;-3.93;71.33
6395;BME280;3230;42.588;23.358;2023-02-11T06:58:36;92368.63;;;-3.62;68.63
6395;BME280;3230;42.588;23.358;2023-02-11T07:01:06;92363.03;;;-3.65;70.24
6395;BME280;3230;42.588;23.358;2023-02-11T07:03:37;92361.38;;;-3.83;69.74
6395;BME280;3230;42.588;23.358;2023-02-11T07:06:04;92362.81;;;-3.80;69.65
6395;BME280;3230;42.588;23.358;2023-02-11T07:08:33;92361.94;;;-3.97;70.59
6395;BME280;3230;42.588;23.358;2023-02-11T07:10:59;92360.38;;;-3.90;70.92
6395;BME280;3230;42.588;23.358;2023-02-11T07:13:25;92368.22;;;-3.49;69.74
6395;BME280;3230;42.588;23.358;2023-02-11T07:15:50;92373.75;;;-3.11;68.74
6395;BME280;3230;42.588;23.358;2023-02-11T07:18:16;92361.59;;;-2.84;66.58
6395;BME280;3230;42.588;23.358;2023-02-11T07:20:41;92358.56;;;-2.71;67.56
6395;BME280;3230;42.588;23.358;2023-02-11T07:23:07;92365.59;;;-2.32;63.46
6395;BME280;3230;42.588;23.358;2023-02-11T07:25:32;92355.28;;;-2.15;64.79
6395;BME280;3230;42.588;23.358;2023-02-11T07:27:57;92356.59;;;-1.63;63.83
6395;BME280;3230;42.588;23.358;2023-02-11T07:30:23;92354.00;;;-0.54;60.51
6395;BME280;3230;42.588;23.358;2023-02-11T07:32:48;92364.22;;;0.38;55.12
6395;BME280;3230;42.588;23.358;2023-02-11T07:35:14;92355.16;;;0.93;50.84
6395;BME280;3230;42.588;23.358;2023-02-11T07:37:39;92365.59;;;1.65;49.33
6395;BME280;3230;42.588;23.358;2023-02-11T07:40:06;92361.41;;;2.56;47.43
6395;BME280;3230;42.588;23.358;2023-02-11T07:42:33;92362.84;;;3.20;42.56
6395;BME280;3230;42.588;23.358;2023-02-11T07:44:58;92358.66;;;3.19;43.00
6395;BME280;3230;42.588;23.358;2023-02-11T07:47:24;92354.75;;;2.88;43.25
6395;BME280;3230;42.588;23.358;2023-02-11T07:49:49;92350.56;;;3.83;42.09
6395;BME280;3230;42.588;23.358;2023-02-11T07:52:14;92353.84;;;4.64;40.06
6395;BME280;3230;42.588;23.358;2023-02-11T07:54:40;92346.47;;;5.13;39.50
6395;BME280;3230;42.588;23.358;2023-02-11T07:57:05;92349.81;;;6.60;37.06
6395;BME280;3230;42.588;23.358;2023-02-11T07:59:31;92345.59;;;6.59;37.16
6395;BME280;3230;42.588;23.358;2023-02-11T08:01:56;92337.00;;;7.57;35.06
6395;BME280;3230;42.588;23.358;2023-02-11T08:04:22;92336.34;;;8.51;33.30
6395;BME280;3230;42.588;23.358;2023-02-11T08:06:47;92337.44;;;9.32;32.57
6395;BME280;3230;42.588;23.358;2023-02-11T08:09:14;92332.00;;;9.50;32.40
6395;BME280;3230;42.588;23.358;2023-02-11T08:11:43;92330.56;;;9.88;30.67
6395;BME280;3230;42.588;23.358;2023-02-11T08:14:10;92337.38;;;9.89;30.56
6395;BME280;3230;42.588;23.358;2023-02-11T08:16:36;92334.69;;;10.35;29.15
6395;BME280;3230;42.588;23.358;2023-02-11T08:19:05;92320.97;;;9.77;30.25
6395;BME280;3230;42.588;23.358;2023-02-11T08:21:32;92321.41;;;9.74;30.61
6395;BME280;3230;42.588;23.358;2023-02-11T08:23:57;92328.66;;;9.38;30.11
6395;BME280;3230;42.588;23.358;2023-02-11T08:26:26;92335.84;;;9.31;30.94
6395;BME280;3230;42.588;23.358;2023-02-11T08:28:54;92336.25;;;9.39;31.35
6395;BME280;3230;42.588;23.358;2023-02-11T08:31:22;92333.19;;;9.14;31.86
6395;BME280;3230;42.588;23.358;2023-02-11T08:33:48;92348.25;;;9.81;31.26
6395;BME280;3230;42.588;23.358;2023-02-11T08:36:16;92336.66;;;9.77;30.89
6395;BME280;3230;42.588;23.358;2023-02-11T08:38:46;92345.81;;;10.26;29.29
6395;BME280;3230;42.588;23.358;2023-02-11T08:41:12;92331.78;;;10.49;28.87
6395;BME280;3230;42.588;23.358;2023-02-11T08:43:42;92341.53;;;9.85;30.44
6395;BME280;3230;42.588;23.358;2023-02-11T08:46:11;92342.00;;;10.16;29.18
6395;BME280;3230;42.588;23.358;2023-02-11T08:48:36;92346.63;;;9.63;29.41
6395;BME280;3230;42.588;23.358;2023-02-11T08:51:12;92342.31;;;10.20;29.62
6395;BME280;3230;42.588;23.358;2023-02-11T08:53:38;92343.63;;;9.71;30.55
6395;BME280;3230;42.588;23.358;2023-02-11T08:56:04;92343.47;;;9.61;31.31
6395;BME280;3230;42.588;23.358;2023-02-11T08:58:30;92342.41;;;9.45;29.93
6395;BME280;3230;42.588;23.358;2023-02-11T09:00:56;92339.03;;;8.09;30.83
6395;BME280;3230;42.588;23.358;2023-02-11T09:03:21;92337.03;;;7.68;32.33
6395;BME280;3230;42.588;23.358;2023-02-11T09:05:48;92336.44;;;5.81;34.16
6395;BME280;3230;42.588;23.358;2023-02-11T09:08:14;92343.59;;;4.83;36.94
6395;BME280;3230;42.588;23.358;2023-02-11T09:10:41;92336.28;;;2.98;40.07
6395;BME280;3230;42.588;23.358;2023-02-11T09:13:07;92331.00;;;2.71;42.65
6395;BME280;3230;42.588;23.358;2023-02-11T09:15:33;92314.81;;;2.14;43.96
6395;BME280;3230;42.588;23.358;2023-02-11T09:17:59;92324.78;;;2.17;45.31
6395;BME280;3230;42.588;23.358;2023-02-11T09:20:25;92331.13;;;1.80;46.87
6395;BME280;3230;42.588;23.358;2023-02-11T09:22:52;92321.00;;;1.56;47.57
6395;BME280;3230;42.588;23.358;2023-02-11T09:25:17;92330.00;;;1.17;48.18
6395;BME280;3230;42.588;23.358;2023-02-11T09:27:43;92330.47;;;0.84;51.31
6395;BME280;3230;42.588;23.358;2023-02-11T09:30:09;92318.75;;;0.67;52.35
6395;BME280;3230;42.588;23.358;2023-02-11T09:32:34;92322.34;;;0.21;53.04
6395;BME280;3230;42.588;23.358;2023-02-11T09:35:00;92316.94;;;0.15;54.97
6395;BME280;3230;42.588;23.358;2023-02-11T09:37:25;92320.34;;;0.68;56.04
6395;BME280;3230;42.588;23.358;2023-02-11T09:39:50;92304.91;;;0.89;55.76
6395;BME280;3230;42.588;23.358;2023-02-11T09:42:24;92305.88;;;0.88;55.97
6395;BME280;3230;42.588;23.358;2023-02-11T09:44:54;92304.00;;;0.60;56.56
6395;BME280;3230;42.588;23.358;2023-02-11T09:47:28;92306.09;;;0.72;55.76
6395;BME280;3230;42.588;23.358;2023-02-11T09:50:00;92299.91;;;0.51;55.80
6395;BME280;3230;42.588;23.358;2023-02-11T09:53:05;92292.31;;;0.64;56.35
6395;BME280;3230;42.588;23.358;2023-02-11T09:55:38;92287.66;;;0.53;57.15
6395;BME280;3230;42.588;23.358;2023-02-11T09:58:14;92285.22;;;0.67;56.37
6395;BME280;3230;42.588;23.358;2023-02-11T10:06:06;92278.22;;;0.60;57.12
6395;BME280;3230;42.588;23.358;2023-02-11T10:11:09;92264.53;;;0.82;57.88
6395;BME280;3230;42.588;23.358;2023-02-11T10:19:12;92262.69;;;0.54;56.21
6395;BME280;3230;42.588;23.358;2023-02-11T10:21:57;92251.47;;;0.83;56.04
6395;BME280;3230;42.588;23.358;2023-02-11T10:24:24;92255.00;;;0.82;55.78
6395;BME280;3230;42.588;23.358;2023-02-11T10:26:52;92240.72;;;0.43;56.05
6395;BME280;3230;42.588;23.358;2023-02-11T10:29:58;92236.28;;;0.73;54.66
6395;BME280;3230;42.588;23.358;2023-02-11T10:32:32;92234.75;;;0.57;58.99
6395;BME280;3230;42.588;23.358;2023-02-11T10:35:03;92224.03;;;0.60;58.42
6395;BME280;3230;42.588;23.358;2023-02-11T10:37:34;92212.44;;;0.71;59.76
6395;BME280;3230;42.588;23.358;2023-02-11T10:39:59;92203.41;;;0.82;57.83
6395;BME280;3230;42.588;23.358;2023-02-11T10:42:25;92196.09;;;0.86;55.66
6395;BME280;3230;42.588;23.358;2023-02-11T10:45:01;92187.22;;;0.95;55.90
6395;BME280;3230;42.588;23.358;2023-02-11T10:47:32;92190.31;;;1.12;56.21
6395;BME280;3230;42.588;23.358;2023-02-11T10:50:17;92195.78;;;0.95;56.29
6395;BME280;3230;42.588;23.358;2023-02-11T10:52:43;92186.97;;;0.90;55.86
6395;BME280;3230;42.588;23.358;2023-02-11T10:57:40;92178.88;;;1.21;53.31
6395;BME280;3230;42.588;23.358;2023-02-11T11:00:21;92177.28;;;0.92;53.89
6395;BME280;3230;42.588;23.358;2023-02-11T11:02:54;92170.19;;;1.01;53.30
6395;BME280;3230;42.588;23.358;2023-02-11T11:05:27;92162.88;;;0.76;53.82
6395;BME280;3230;42.588;23.358;2023-02-11T11:08:04;92157.53;;;1.06;52.29
6395;BME280;3230;42.588;23.358;2023-02-11T11:12:58;92160.88;;;0.78;53.37
6395;BME280;3230;42.588;23.358;2023-02-11T11:15:26;92169.88;;;0.82;53.38
6395;BME280;3230;42.588;23.358;2023-02-11T11:18:13;92159.50;;;1.04;54.79
6395;BME280;3230;42.588;23.358;2023-02-11T11:20:43;92164.59;;;0.97;55.31
6395;BME280;3230;42.588;23.358;2023-02-11T11:23:21;92164.28;;;1.07;52.76
6395;BME280;3230;42.588;23.358;2023-02-11T11:26:04;92162.69;;;1.06;51.65
6395;BME280;3230;42.588;23.358;2023-02-11T11:28:40;92147.03;;;1.07;51.27
6395;BME280;3230;42.588;23.358;2023-02-11T11:31:45;92154.94;;;0.77;51.02
6395;BME280;3230;42.588;23.358;2023-02-11T11:34:18;92146.53;;;0.97;52.17
6395;BME280;3230;42.588;23.358;2023-02-11T11:36:45;92159.88;;;1.01;51.99
6395;BME280;3230;42.588;23.358;2023-02-11T11:41:51;92145.94;;;1.23;51.58
6395;BME280;3230;42.588;23.358;2023-02-11T11:44:43;92143.75;;;0.99;50.36
6395;BME280;3230;42.588;23.358;2023-02-11T11:47:24;92145.00;;;1.03;51.19
6395;BME280;3230;42.588;23.358;2023-02-11T11:50:24;92133.44;;;0.99;51.62
6395;BME280;3230;42.588;23.358;2023-02-11T11:52:56;92137.03;;;0.98;52.39
6395;BME280;3230;42.588;23.358;2023-02-11T11:55:35;92138.56;;;1.20;52.70
6395;BME280;3230;42.588;23.358;2023-02-11T11:58:03;92127.03;;;1.16;52.71
6395;BME280;3230;42.588;23.358;2023-02-11T12:00:42;92131.00;;;1.19;51.65
6395;BME280;3230;42.588;23.358;2023-02-11T12:06:38;92120.47;;;1.20;52.58
6395;BME280;3230;42.588;23.358;2023-02-11T12:31:27;92104.78;;;1.15;52.08
6395;BME280;3230;42.588;23.358;2023-02-11T12:37:01;92090.91;;;1.23;53.06
6395;BME280;3230;42.588;23.358;2023-02-11T12:45:07;92080.38;;;1.66;51.77
6395;BME280;3230;42.588;23.358;2023-02-11T12:55:57;92075.41;;;1.65;49.96
6395;BME280;3230;42.588;23.358;2023-02-11T12:58:26;92080.25;;;1.88;49.58
6395;BME280;3230;42.588;23.358;2023-02-11T13:01:03;92071.66;;;1.74;49.81
6395;BME280;3230;42.588;23.358;2023-02-11T13:03:36;92072.44;;;1.68;48.98
6395;BME280;3230;42.588;23.358;2023-02-11T13:06:08;92067.47;;;1.73;48.91
6395;BME280;3230;42.588;23.358;2023-02-11T13:08:47;92059.25;;;1.49;48.38
6395;BME280;3230;42.588;23.358;2023-02-11T13:11:29;92064.50;;;1.76;47.81
6395;BME280;3230;42.588;23.358;2023-02-11T13:14:05;92053.81;;;1.86;48.56
6395;BME280;3230;42.588;23.358;2023-02-11T13:16:43;92056.72;;;1.63;47.17
6395;BME280;3230;42.588;23.358;2023-02-11T13:24:15;92063.47;;;1.64;46.49
6395;BME280;3230;42.588;23.358;2023-02-11T13:29:39;92060.94;;;1.77;48.21
6395;BME280;3230;42.588;23.358;2023-02-11T13:32:13;92054.16;;;1.69;48.60
6395;BME280;3230;42.588;23.358;2023-02-11T13:37:21;92047.44;;;1.82;48.46
6395;BME280;3230;42.588;23.358;2023-02-11T13:40:21;92059.69;;;1.59;47.41
6395;BME280;3230;42.588;23.358;2023-02-11T13:42:53;92054.72;;;1.58;47.45
6395;BME280;3230;42.588;23.358;2023-02-11T13:45:44;92044.22;;;1.73;48.30
6395;BME280;3230;42.588;23.358;2023-02-11T13:48:29;92046.00;;;1.72;47.69
6395;BME280;3230;42.588;23.358;2023-02-11T13:50:58;92044.41;;;1.65;47.71
6395;BME280;3230;42.588;23.358;2023-02-11T13:53:25;92045.19;;;1.58;47.58
6395;BME280;3230;42.588;23.358;2023-02-11T13:56:04;92041.03;;;1.71;48.22
6395;BME280;3230;42.588;23.358;2023-02-11T13:58:33;92037.25;;;1.60;48.36
6395;BME280;3230;42.588;23.358;2023-02-11T14:01:01;92032.84;;;1.54;47.88
6395;BME280;3230;42.588;23.358;2023-02-11T14:03:32;92026.31;;;1.65;48.18
6395;BME280;3230;42.588;23.358;2023-02-11T14:06:23;92035.84;;;1.57;48.66
6395;BME280;3230;42.588;23.358;2023-02-11T14:19:39;92019.31;;;1.45;48.18
6395;BME280;3230;42.588;23.358;2023-02-11T14:32:56;92000.22;;;1.39;49.42
6395;BME280;3230;42.588;23.358;2023-02-11T14:38:28;92021.13;;;1.51;48.86
6395;BME280;3230;42.588;23.358;2023-02-11T14:41:09;92010.78;;;1.51;48.26
6395;BME280;3230;42.588;23.358;2023-02-11T14:43:42;92015.50;;;1.41;48.48
6395;BME280;3230;42.588;23.358;2023-02-11T14:46:09;92022.19;;;1.22;48.96
6395;BME280;3230;42.588;23.358;2023-02-11T14:48:37;92020.53;;;1.07;49.70
6395;BME280;3230;42.588;23.358;2023-02-11T14:51:13;92029.41;;;0.91;50.09
6395;BME280;3230;42.588;23.358;2023-02-11T14:53:46;92020.22;;;0.82;50.11
6395;BME280;3230;42.588;23.358;2023-02-11T14:56:27;92023.91;;;0.73;50.91
6395;BME280;3230;42.588;23.358;2023-02-11T14:58:55;92032.50;;;0.52;51.11
6395;BME280;3230;42.588;23.358;2023-02-11T15:03:56;92024.06;;;0.36;53.54
6395;BME280;3230;42.588;23.358;2023-02-11T15:06:30;92011.25;;;0.21;54.04
6395;BME280;3230;42.588;23.358;2023-02-11T15:09:03;92016.31;;;0.08;54.15
6395;BME280;3230;42.588;23.358;2023-02-11T15:11:33;92009.63;;;-0.08;54.39
6395;BME280;3230;42.588;23.358;2023-02-11T15:14:17;92013.63;;;-0.06;54.30
6395;BME280;3230;42.588;23.358;2023-02-11T15:16:44;92010.19;;;-0.13;55.73
6395;BME280;3230;42.588;23.358;2023-02-11T15:21:44;92005.94;;;-0.42;58.04
6395;BME280;3230;42.588;23.358;2023-02-11T15:27:02;92006.78;;;-0.57;62.64
6395;BME280;3230;42.588;23.358;2023-02-11T15:29:35;92002.19;;;-0.61;63.77
6395;BME280;3230;42.588;23.358;2023-02-11T15:32:02;91996.00;;;-0.82;67.04
6395;BME280;3230;42.588;23.358;2023-02-11T15:34:29;91989.97;;;-0.89;69.41
6395;BME280;3230;42.588;23.358;2023-02-11T15:36:55;91987.41;;;-0.89;69.77
6395;BME280;3230;42.588;23.358;2023-02-11T15:39:33;91984.94;;;-0.98;70.60
6395;BME280;3230;42.588;23.358;2023-02-11T15:42:25;91980.53;;;-1.19;71.59
6395;BME280;3230;42.588;23.358;2023-02-11T15:47:47;91993.75;;;-1.37;73.35
6395;BME280;3230;42.588;23.358;2023-02-11T15:50:25;91988.44;;;-1.50;73.54